createdAt,value
2022-08-17T00:04:19.448Z,100985.16
2022-08-17T00:09:23.958Z,100987.06
2022-08-17T00:14:26.976Z,100995.13
2022-08-17T00:19:33.025Z,100975.59
2022-08-17T00:24:37.493Z,100972.00
2022-08-17T00:29:40.774Z,100970.25
2022-08-17T00:34:43.681Z,100959.59
2022-08-17T00:39:48.341Z,100965.91
2022-08-17T00:44:51.490Z,100970.31
2022-08-17T00:49:54.744Z,100967.56
2022-08-17T00:55:00.507Z,100962.19
2022-08-17T01:00:09.475Z,100954.28
2022-08-17T01:05:18.653Z,100979.28
2022-08-17T01:11:00.084Z,100998.19
2022-08-17T01:15:57.502Z,101008.22
2022-08-17T01:21:08.662Z,100980.81
2022-08-17T01:26:13.053Z,100994.25
2022-08-17T01:31:16.351Z,100956.06
2022-08-17T01:36:19.535Z,100955.25
2022-08-17T01:41:25.465Z,100947.34
2022-08-17T01:46:30.061Z,100938.53
2022-08-17T01:51:33.793Z,100937.66
2022-08-17T01:56:42.805Z,100933.28
2022-08-17T02:01:46.980Z,100934.25
2022-08-17T02:06:53.618Z,100938.72
2022-08-17T02:12:38.538Z,100936.06
2022-08-17T02:17:26.584Z,100936.94
2022-08-17T02:22:30.162Z,100929.81
2022-08-17T02:27:34.456Z,100930.69
2022-08-17T02:32:37.779Z,100936.03
2022-08-17T02:37:43.080Z,100945.81
2022-08-17T02:42:52.590Z,100956.47
2022-08-17T02:47:55.979Z,100960.06
2022-08-17T02:53:01.684Z,100963.59
2022-08-17T02:58:06.703Z,100961.84
2022-08-17T03:03:13.704Z,100976.06
2022-08-17T03:08:17.041Z,100990.25
2022-08-17T03:13:21.752Z,100982.28
2022-08-17T03:18:26.290Z,100983.16
2022-08-17T03:23:33.110Z,100981.38
2022-08-17T03:28:37.560Z,100980.47
2022-08-17T03:33:40.773Z,100975.16
2022-08-17T03:38:43.763Z,100981.38
2022-08-17T03:43:49.397Z,100984.94
2022-08-17T03:49:09.981Z,100992.03
2022-08-17T03:54:30.567Z,101008.94
2022-08-17T03:59:36.306Z,101004.50
2022-08-17T04:04:40.338Z,101004.50
2022-08-17T04:09:44.988Z,100998.31
2022-08-17T04:14:53.147Z,100987.63
2022-08-17T04:19:57.713Z,100989.41
2022-08-17T04:25:00.742Z,100984.06
2022-08-17T04:30:07.289Z,100981.41
2022-08-17T04:35:10.799Z,100982.31
2022-08-17T04:40:31.586Z,100977.84
2022-08-17T04:45:39.995Z,100981.41
2022-08-17T04:50:45.286Z,100976.06
2022-08-17T04:55:48.423Z,100976.94
2022-08-17T05:00:52.841Z,100984.94
2022-08-17T05:05:55.924Z,100984.94
2022-08-17T05:11:01.024Z,100988.47
2022-08-17T05:16:06.403Z,100984.94
2022-08-17T05:21:10.096Z,100987.59
2022-08-17T05:26:26.458Z,101000.03
2022-08-17T05:31:32.034Z,101008.03
2022-08-17T05:36:43.722Z,101009.81
2022-08-17T05:41:48.842Z,101003.56
2022-08-17T05:46:54.358Z,101008.91
2022-08-17T05:52:10.437Z,101017.81
2022-08-17T05:57:39.509Z,101002.69
2022-08-17T06:03:04.547Z,101005.22
2022-08-17T06:08:14.152Z,101013.13
2022-08-17T06:13:26.836Z,101001.50
2022-08-17T06:18:37.737Z,101020.09
2022-08-17T06:23:44.671Z,101011.97
2022-08-17T06:28:52.685Z,101008.34
2022-08-17T06:33:58.087Z,101018.06
2022-08-17T06:39:17.108Z,101037.66
2022-08-17T06:44:43.463Z,101035.88
2022-08-17T06:50:02.148Z,101031.41
2022-08-17T06:55:09.392Z,101048.31
2022-08-17T07:00:24.339Z,101039.34
2022-08-17T07:05:36.356Z,101047.31
2022-08-17T07:10:46.096Z,101052.63
2022-08-17T07:15:56.510Z,101065.13
2022-08-17T07:21:14.173Z,101066.03
2022-08-17T07:26:23.314Z,101058.88
2022-08-17T07:31:27.592Z,101075.75
2022-08-17T07:36:34.749Z,101081.03
2022-08-17T07:41:53.037Z,101084.53
2022-08-17T07:47:18.845Z,101082.59
2022-08-17T07:52:50.751Z,101088.81
2022-08-17T07:57:58.064Z,101097.69
2022-08-17T08:03:13.550Z,101103.97
2022-08-17T08:08:26.335Z,101106.72
2022-08-17T08:13:32.351Z,101111.38
2022-08-17T08:18:54.818Z,101108.66
2022-08-17T08:24:32.547Z,101106.81
2022-08-17T08:29:45.773Z,101110.28
2022-08-17T08:35:02.837Z,101111.00
2022-08-17T08:40:20.904Z,101123.53
2022-08-17T08:45:27.627Z,101131.63
2022-08-17T08:50:40.298Z,101119.88
2022-08-17T08:55:53.022Z,101128.63
2022-08-17T09:00:59.496Z,101122.19
2022-08-17T09:06:37.765Z,101120.19
2022-08-17T09:12:01.077Z,101093.81
2022-08-17T09:17:13.890Z,101092.53
2022-08-17T09:22:31.923Z,101090.53
2022-08-17T09:27:47.765Z,101090.47
2022-08-17T09:32:55.847Z,101095.75
2022-08-17T09:38:09.959Z,101097.00
2022-08-17T09:43:23.311Z,101087.69
2022-08-17T09:48:32.703Z,101111.78
2022-08-17T09:53:38.225Z,101117.16
2022-08-17T09:58:56.716Z,101127.84
2022-08-17T10:04:24.849Z,101128.03
2022-08-17T10:09:45.251Z,101135.41
2022-08-17T10:15:08.077Z,101138.19
2022-08-17T10:20:18.354Z,101149.16
2022-08-17T10:25:53.986Z,101164.38
2022-08-17T10:31:34.357Z,101168.72
2022-08-17T10:36:37.958Z,101165.31
2022-08-17T10:41:45.844Z,101188.72
2022-08-17T10:47:04.683Z,101211.00
2022-08-17T10:52:49.392Z,101232.19
2022-08-17T10:57:54.872Z,101226.22
2022-08-17T11:03:00.998Z,101221.00
2022-08-17T11:08:24.629Z,101218.19
2022-08-17T11:13:40.065Z,101196.19
2022-08-17T11:19:10.266Z,101188.41
2022-08-17T11:24:20.124Z,101196.50
2022-08-17T11:29:27.547Z,101196.53
2022-08-17T11:34:35.394Z,101210.78
2022-08-17T11:39:55.557Z,101204.56
2022-08-17T11:45:02.533Z,101209.84
2022-08-17T11:50:48.253Z,101200.03
2022-08-17T11:56:06.302Z,101171.56
2022-08-17T12:01:13.629Z,101171.59
2022-08-17T12:06:32.042Z,101170.69
2022-08-17T12:11:56.393Z,101183.13
2022-08-17T12:17:09.183Z,101193.81
2022-08-17T12:22:18.908Z,101203.56
2022-08-17T12:27:47.700Z,101206.25
2022-08-17T12:32:51.057Z,101204.56
2022-08-17T12:37:57.651Z,101203.66
2022-08-17T12:43:06.737Z,101201.91
2022-08-17T12:48:12.641Z,101200.09
2022-08-17T12:53:21.306Z,101195.59
2022-08-17T12:58:26.881Z,101200.06
2022-08-17T13:03:37.271Z,101202.75
2022-08-17T13:08:44.361Z,101195.63
2022-08-17T13:13:51.303Z,101185.84
2022-08-17T13:18:58.426Z,101200.09
2022-08-17T13:24:07.797Z,101186.72
2022-08-17T13:29:23.888Z,101184.03
2022-08-17T13:35:11.785Z,101185.84
2022-08-17T13:40:28.036Z,101189.38
2022-08-17T13:45:38.964Z,101177.66
2022-08-17T13:50:45.717Z,101167.91
2022-08-17T13:55:53.448Z,101159.97
2022-08-17T14:00:59.332Z,101171.53
2022-08-17T14:06:02.623Z,101158.13
2022-08-17T14:11:07.014Z,101164.16
2022-08-17T14:16:09.997Z,101157.00
2022-08-17T14:21:13.384Z,101164.97
2022-08-17T14:26:17.731Z,101163.25
2022-08-17T14:31:21.278Z,101162.38
2022-08-17T14:36:24.182Z,101160.56
2022-08-17T14:41:29.020Z,101149.94
2022-08-17T14:46:32.738Z,101146.31
2022-08-17T14:51:36.294Z,101147.22
2022-08-17T14:56:48.202Z,101142.78
2022-08-17T15:02:01.042Z,101132.91
2022-08-17T15:07:04.165Z,101136.41
2022-08-17T15:12:09.545Z,101147.03
2022-08-17T15:17:12.496Z,101147.91
2022-08-17T15:22:23.853Z,101150.34
2022-08-17T15:27:32.429Z,101152.00
2022-08-17T15:32:38.992Z,101148.38
2022-08-17T15:37:42.011Z,101145.72
2022-08-17T15:42:46.337Z,101160.75
2022-08-17T15:47:49.503Z,101155.47
2022-08-17T15:52:58.768Z,101154.50
2022-08-17T15:58:03.162Z,101167.72
2022-08-17T16:03:46.298Z,101165.84
2022-08-17T16:08:29.838Z,101149.81
2022-08-17T16:13:34.168Z,101149.81
2022-08-17T16:18:37.831Z,101150.69
2022-08-17T16:23:40.752Z,101151.69
2022-08-17T16:28:45.174Z,101149.03
2022-08-17T16:33:58.498Z,101150.91
2022-08-17T16:39:12.505Z,101138.47
2022-08-17T16:44:21.795Z,101148.28
2022-08-17T16:49:37.147Z,101163.50
2022-08-17T16:54:43.790Z,101168.09
2022-08-17T16:59:50.343Z,101163.59
2022-08-17T17:04:59.378Z,101167.25
2022-08-17T17:10:08.717Z,101174.47
2022-08-17T17:15:15.694Z,101181.78
2022-08-17T17:20:28.836Z,101178.28
2022-08-17T17:25:42.014Z,101185.59
2022-08-17T17:30:56.741Z,101183.91
2022-08-17T17:36:02.931Z,101187.44
2022-08-17T17:41:09.774Z,101190.09
2022-08-17T17:46:28.085Z,101190.09
2022-08-17T17:52:07.873Z,101194.59
2022-08-17T17:57:12.215Z,101200.84
2022-08-17T18:02:51.540Z,101199.06
2022-08-17T18:08:05.941Z,101197.28
2022-08-17T18:13:26.688Z,101204.41
2022-08-17T18:18:39.686Z,101208.00
2022-08-17T18:23:53.129Z,101204.47
2022-08-17T18:28:56.133Z,101197.31
2022-08-17T18:34:45.935Z,101207.03
2022-08-17T18:39:44.437Z,101203.59
2022-08-17T18:44:50.614Z,101204.50
2022-08-17T18:50:11.954Z,101206.25
2022-08-17T18:55:18.206Z,101200.91
2022-08-17T19:00:36.609Z,101228.53
2022-08-17T19:05:43.142Z,101235.66
2022-08-17T19:10:47.598Z,101249.00
2022-08-17T19:16:13.955Z,101256.13
2022-08-17T19:21:22.480Z,101257.03
2022-08-17T19:26:51.209Z,101270.38
2022-08-17T19:31:51.548Z,101272.16
2022-08-17T19:37:03.472Z,101265.94
2022-08-17T19:42:17.741Z,101267.72
2022-08-17T19:47:53.299Z,101279.28
2022-08-17T19:52:59.023Z,101273.94
2022-08-17T19:58:12.452Z,101267.72
2022-08-17T20:03:27.073Z,101278.41
2022-08-17T20:08:38.775Z,101272.16
2022-08-17T20:13:43.729Z,101282.84
2022-08-17T20:18:53.161Z,101281.94
2022-08-17T20:24:08.065Z,101280.19
2022-08-17T20:29:40.006Z,101288.19
2022-08-17T20:34:47.533Z,101287.25
2022-08-17T20:40:22.086Z,101281.03
2022-08-17T20:45:54.080Z,101282.78
2022-08-17T20:51:00.928Z,101285.47
2022-08-17T20:56:05.954Z,101273.91
2022-08-17T21:01:16.131Z,101277.47
2022-08-17T21:06:23.053Z,101280.16
2022-08-17T21:12:04.252Z,101273.91
2022-08-17T21:17:22.731Z,101274.78
2022-08-17T21:22:38.658Z,101267.63
2022-08-17T21:27:51.333Z,101269.38
2022-08-17T21:33:20.691Z,101280.00
2022-08-17T21:38:34.920Z,101284.44
2022-08-17T21:43:48.666Z,101283.53
2022-08-17T21:48:54.531Z,101291.56
2022-08-17T21:54:01.340Z,101296.00
2022-08-17T21:59:07.825Z,101296.88
2022-08-17T22:04:20.674Z,101301.34
2022-08-17T22:09:26.692Z,101301.34
2022-08-17T22:14:52.730Z,101302.22
2022-08-17T22:20:00.023Z,101312.03
2022-08-17T22:25:06.694Z,101305.78
2022-08-17T22:30:20.369Z,101314.69
2022-08-17T22:35:38.448Z,101341.34
2022-08-17T22:40:41.601Z,101352.88
2022-08-17T22:45:51.430Z,101352.88
2022-08-17T22:51:12.817Z,101335.97
2022-08-17T22:56:37.345Z,101327.06
2022-08-17T23:01:43.395Z,101336.81
2022-08-17T23:06:46.438Z,101338.56
2022-08-17T23:11:53.514Z,101343.00
2022-08-17T23:17:01.131Z,101345.69
2022-08-17T23:22:06.120Z,101341.22
2022-08-17T23:27:09.046Z,101332.34
2022-08-17T23:32:16.169Z,101319.00
2022-08-17T23:37:20.564Z,101332.31
2022-08-17T23:42:23.959Z,101311.00
2022-08-17T23:47:28.722Z,101310.97
2022-08-17T23:52:32.254Z,101319.84
2022-08-17T23:57:35.850Z,101327.81
